CheckWX is a tool to help pilots better visualize weather data.  It is not intended as a substitute for an official pre-flight weather briefing.

00:20:31 UTC

LRCT TAF
Câmpia Turzii Air Base Airport
Câmpia Turzii, Romania
TAF LRCT 252300Z 2600/2700 28004KT 9999 BKN070 OVC100 PROB30 TEMPO 2600/2604 8000 RA BKN035 OVC050 BECMG 2610/2612 35014KT BECMG 2620/2622 FEW150

Mar-26@
00:00 UTC

Mar-26 @ 00:00 UTC

Mar-26@
10:00 UTC

Mar-26 @ 10:00 UTC

TAF LRCT 252300Z 2600/2700 28004KT 9999 BKN070 OVC100
Wind
  • 280° at 4 KTS
Cloud Levels
  • Broken at 7,000' AGL
  • Overcast at 10,000' AGL

Mar-26@
00:00 UTC

Mar-26 @ 00:00 UTC

Mar-26@
04:00 UTC

Mar-26 @ 04:00 UTC

PROB30 TEMPO 2600/2604 8000 RA BKN035 OVC050

Temporary - 30% Likelihood

Temporary - 30% Likelihood during this time.

Conditions
Rain
Cloud Levels
  • Broken at 3,500' AGL
  • Overcast at 5,000' AGL

Mar-26@
10:00 UTC

Mar-26 @ 10:00 UTC

Mar-26@
20:00 UTC

Mar-26 @ 20:00 UTC

BECMG 2610/2612 35014KT

Becoming

Becoming Conditions expected by Tue, Mar 26, 2019 @ 12:00 UTC

Wind
  • 350° at 14 KTS
Cloud Levels
  • Broken at 7,000' AGL
  • Overcast at 10,000' AGL

Mar-26@
20:00 UTC

Mar-26 @ 20:00 UTC

Mar-27@
00:00 UTC

Mar-27 @ 00:00 UTC

BECMG 2620/2622 FEW150

Becoming

Becoming Conditions expected by Tue, Mar 26, 2019 @ 22:00 UTC

Wind
  • 350° at 14 KTS
Cloud Levels
  • Few at 15,000' AGL